LGHI/JKH METAR and TAF weather

Enter ICAO airport designator
Station Type Date Time Source
LGHI METAR 2019/02/16 16:50 UTC NOAA

LGHI 161650Z 01014G24KT 9999 FEW020 10/03 Q1021


Station Type Date Time Source
LGHI Decoded METAR 2019/02/16 16:50 UTC NOAA

Chios Airport , Greece (LGHI) 38-20N 026-08E 4M
Feb 16, 2019 - 11:50 AM EST / 2019.02.16 1650 UTC
Wind: from the N (010 degrees) at 16 MPH (14 KT) gusting to 28 MPH (24 KT):0
Visibility: greater than 7 mile(s):0
Sky conditions: mostly clear
Temperature: 50 F (10 C)
Dew Point: 37 F (3 C)
Relative Humidity: 61%
Pressure (altimeter): 30.15 in. Hg (1021 hPa)
ob: LGHI 161650Z 01014G24KT 9999 FEW020 10/03 Q1021
cycle: 17

Station Type Date Time Source
LGHI TAF 2012/09/21 03:06 UTC NOAA

TAF TAF LGHI 210200Z 2103/2115 VRB05KT 9999 SCT020 PROB30
TEMPO 2103/2106 7000 RA SCT018 BKN030
BECMG 2103/2105 30018KT


Example: see airport list